Apache, Oklahoma
Current Conditions -  °F | °C
As of 1:58 PM on Friday 31 Oct 2014 (Local Time) from KFSI Reporting Station
Clear Clear  
Wind Chill: 59°   Ceiling: Unl
Heat Index: 59°   Visibility: 10mi
Dew Point: 36°   Wind: 22mph
Humidity: 43%   Direction: 10°N
Pressure: 30.37"   Gusts: 25mph
Location:  34.89°N, 98.37°W
Report Text: KFSI 311858Z AUTO 01019G22KT 10SM CLR 15/02 A3037 RMK AO2 SLP283 T01490023
Loading
Personal Weather Stations






























Interactive Weather Map
Tropical Storm Tracking
New forecast layout! Learn more

10-Day Weather Forecast

Advertisements
Track Severe Weather on mobile